createdAt,value
2023-04-18T00:01:47.550Z,97843.38
2023-04-18T00:04:20.685Z,97841.38
2023-04-18T00:06:54.942Z,97838.29
2023-04-18T00:09:27.692Z,97836.71
2023-04-18T00:12:01.936Z,97838.23
2023-04-18T00:14:37.753Z,97839.57
2023-04-18T00:17:11.219Z,97836.41
2023-04-18T00:20:08.291Z,97836.60
2023-04-18T00:22:43.030Z,97836.27
2023-04-18T00:25:16.368Z,97836.59
2023-04-18T00:27:48.950Z,97837.81
2023-04-18T00:30:23.578Z,97837.45
2023-04-18T00:32:56.122Z,97836.47
2023-04-18T00:35:30.310Z,97842.13
2023-04-18T00:38:02.898Z,97840.43
2023-04-18T00:40:35.782Z,97842.98
2023-04-18T00:43:14.344Z,97841.09
2023-04-18T00:45:49.699Z,97835.06
2023-04-18T00:48:22.762Z,97839.20
2023-04-18T00:50:55.429Z,97841.00
2023-04-18T00:53:28.485Z,97841.98
2023-04-18T00:56:01.597Z,97835.94
2023-04-18T00:58:36.562Z,97835.95
2023-04-18T01:01:46.204Z,97836.35
2023-04-18T01:04:19.252Z,97835.28
2023-04-18T01:06:53.657Z,97839.35
2023-04-18T01:09:27.881Z,97838.22
2023-04-18T01:11:58.839Z,97839.58
2023-04-18T01:14:31.620Z,97841.52
2023-04-18T01:17:04.333Z,97841.84
2023-04-18T01:19:38.170Z,97840.41
2023-04-18T01:22:15.230Z,97844.20
2023-04-18T01:24:48.131Z,97843.73
2023-04-18T01:27:24.659Z,97844.23
2023-04-18T01:29:58.760Z,97844.10
2023-04-18T01:32:35.413Z,97843.39
2023-04-18T01:35:09.720Z,97841.14
2023-04-18T01:37:43.141Z,97845.09
2023-04-18T01:40:16.501Z,97842.70
2023-04-18T01:42:49.222Z,97842.88
2023-04-18T01:45:22.916Z,97849.76
2023-04-18T01:47:55.447Z,97848.74
2023-04-18T01:50:28.726Z,97849.47
2023-04-18T01:53:01.677Z,97850.88
2023-04-18T01:55:34.894Z,97850.60
2023-04-18T01:58:10.642Z,97852.58
2023-04-18T02:00:43.531Z,97852.42
2023-04-18T02:03:18.319Z,97856.15
2023-04-18T02:05:51.576Z,97855.99
2023-04-18T02:08:24.420Z,97858.41
2023-04-18T02:10:57.231Z,97858.23
2023-04-18T02:13:30.120Z,97858.30
2023-04-18T02:16:03.464Z,97855.78
2023-04-18T02:18:36.142Z,97858.86
2023-04-18T02:21:10.079Z,97857.51
2023-04-18T02:23:47.046Z,97857.69
2023-04-18T02:26:19.883Z,97854.48
2023-04-18T02:28:53.651Z,97854.43
2023-04-18T02:31:29.149Z,97856.15
2023-04-18T02:34:01.894Z,97854.77
2023-04-18T02:36:37.343Z,97858.05
2023-04-18T02:39:10.210Z,97859.49
2023-04-18T02:41:43.043Z,97864.67
2023-04-18T02:44:15.791Z,97865.56
2023-04-18T02:46:49.421Z,97864.52
2023-04-18T02:49:23.033Z,97864.86
2023-04-18T02:51:58.196Z,97866.25
2023-04-18T02:54:30.883Z,97861.44
2023-04-18T02:57:09.298Z,97863.86
2023-04-18T02:59:55.940Z,97864.72
2023-04-18T03:02:28.765Z,97869.20
2023-04-18T03:05:04.778Z,97871.42
2023-04-18T03:07:39.391Z,97872.48
2023-04-18T03:10:13.729Z,97874.90
2023-04-18T03:12:48.178Z,97876.08
2023-04-18T03:15:21.652Z,97878.83
2023-04-18T03:17:55.191Z,97875.41
2023-04-18T03:20:29.311Z,97879.38
2023-04-18T03:23:02.730Z,97878.52
2023-04-18T03:25:35.724Z,97882.17
2023-04-18T03:28:08.028Z,97884.52
2023-04-18T03:30:40.680Z,97888.48
2023-04-18T03:33:17.898Z,97887.86
2023-04-18T03:35:52.791Z,97888.00
2023-04-18T03:38:25.337Z,97886.79
2023-04-18T03:40:59.183Z,97889.20
2023-04-18T03:43:37.259Z,97896.27
2023-04-18T03:46:10.089Z,97895.23
2023-04-18T03:48:44.245Z,97900.23
2023-04-18T03:51:18.780Z,97898.69
2023-04-18T03:53:52.584Z,97899.91
2023-04-18T03:56:25.553Z,97901.63
2023-04-18T03:58:59.203Z,97900.08
2023-04-18T04:01:32.351Z,97900.59
2023-04-18T04:04:05.834Z,97903.19
2023-04-18T04:06:38.639Z,97902.34
2023-04-18T04:09:11.564Z,97907.02
2023-04-18T04:11:46.533Z,97909.34
2023-04-18T04:14:19.805Z,97911.58
2023-04-18T04:16:55.605Z,97913.61
2023-04-18T04:19:28.494Z,97917.79
2023-04-18T04:22:11.720Z,97919.59
2023-04-18T04:24:47.136Z,97923.20
2023-04-18T04:27:21.505Z,97918.59
2023-04-18T04:29:54.500Z,97918.08
2023-04-18T04:32:28.788Z,97920.52
2023-04-18T04:35:01.463Z,97927.92
2023-04-18T04:37:35.660Z,97929.31
2023-04-18T04:40:29.334Z,97931.76
2023-04-18T04:43:13.067Z,97934.66
2023-04-18T04:45:51.828Z,97934.22
2023-04-18T04:48:28.255Z,97938.70
2023-04-18T04:51:02.940Z,97940.90
2023-04-18T04:53:35.677Z,97943.36
2023-04-18T04:56:09.807Z,97947.56
2023-04-18T04:58:45.529Z,97953.73
2023-04-18T05:01:29.100Z,97956.30
2023-04-18T05:04:01.904Z,97955.48
2023-04-18T05:06:34.836Z,97964.88
2023-04-18T05:09:07.662Z,97963.48
2023-04-18T05:11:41.644Z,97967.88
2023-04-18T05:14:15.133Z,97962.75
2023-04-18T05:16:48.828Z,97970.67
2023-04-18T05:19:21.621Z,97972.30
2023-04-18T05:21:54.509Z,97971.94
2023-04-18T05:24:27.260Z,97972.55
2023-04-18T05:26:59.767Z,97970.98
2023-04-18T05:29:32.380Z,97974.73
2023-04-18T05:32:04.990Z,97977.13
2023-04-18T05:34:38.868Z,97975.35
2023-04-18T05:37:11.650Z,97981.80
2023-04-18T05:39:45.200Z,97981.09
2023-04-18T05:42:18.822Z,97986.67
2023-04-18T05:44:51.807Z,97985.09
2023-04-18T05:47:27.190Z,97983.67
2023-04-18T05:49:59.865Z,97981.23
2023-04-18T05:52:32.763Z,97981.92
2023-04-18T05:55:07.122Z,97983.78
2023-04-18T05:57:42.004Z,97985.16
2023-04-18T06:00:17.925Z,97982.19
2023-04-18T06:02:51.546Z,97983.62
2023-04-18T06:05:24.942Z,97985.25
2023-04-18T06:07:56.626Z,97985.44
2023-04-18T06:10:30.127Z,97982.85
2023-04-18T06:13:00.759Z,97987.63
2023-04-18T06:15:33.613Z,97988.80
2023-04-18T06:18:06.397Z,97989.91
2023-04-18T06:20:39.138Z,97990.04
2023-04-18T06:23:11.887Z,97988.42
2023-04-18T06:25:47.125Z,97985.70
2023-04-18T06:28:19.703Z,97983.92
2023-04-18T06:30:52.454Z,97986.56
2023-04-18T06:33:25.925Z,97993.61
2023-04-18T06:35:59.542Z,97990.92
2023-04-18T06:38:32.290Z,97994.80
2023-04-18T06:41:06.593Z,98000.17
2023-04-18T06:43:42.569Z,98004.27
2023-04-18T06:46:22.002Z,98005.34
2023-04-18T06:48:55.067Z,98005.10
2023-04-18T06:51:27.743Z,98002.31
2023-04-18T06:54:00.250Z,98000.35
2023-04-18T06:56:36.238Z,98002.34
2023-04-18T06:59:09.440Z,97999.01
2023-04-18T07:01:44.914Z,98000.07
2023-04-18T07:04:17.804Z,98004.81
2023-04-18T07:06:51.006Z,98008.31
2023-04-18T07:09:24.032Z,98008.45
2023-04-18T07:11:57.291Z,98010.65
2023-04-18T07:14:31.239Z,98013.89
2023-04-18T07:17:05.611Z,98015.98
2023-04-18T07:19:38.689Z,98020.10
2023-04-18T07:22:11.498Z,98019.58
2023-04-18T07:24:44.626Z,98022.98
2023-04-18T07:27:18.888Z,98027.95
2023-04-18T07:29:51.469Z,98027.70
2023-04-18T07:32:24.204Z,98022.10
2023-04-18T07:34:57.658Z,98026.03
2023-04-18T07:37:28.489Z,98020.27
2023-04-18T07:40:01.451Z,98019.89
2023-04-18T07:42:35.233Z,98019.74
2023-04-18T07:45:11.055Z,98018.97
2023-04-18T07:47:44.713Z,98020.31
2023-04-18T07:50:17.579Z,98018.20
2023-04-18T07:52:50.345Z,98021.02
2023-04-18T07:55:23.249Z,98024.59
2023-04-18T07:57:56.359Z,98026.55
2023-04-18T08:00:33.082Z,98027.42
2023-04-18T08:03:06.032Z,98029.52
2023-04-18T08:05:38.825Z,98026.80
2023-04-18T08:08:13.018Z,98030.12
2023-04-18T08:10:45.604Z,98027.77
2023-04-18T08:13:18.530Z,98030.20
2023-04-18T08:15:51.812Z,98030.31
2023-04-18T08:18:24.553Z,98029.13
2023-04-18T08:20:57.364Z,98030.98
2023-04-18T08:23:30.234Z,98029.77
2023-04-18T08:26:02.820Z,98028.19
2023-04-18T08:28:37.364Z,98032.64
2023-04-18T08:31:13.128Z,98034.55
2023-04-18T08:33:46.344Z,98034.09
2023-04-18T08:36:19.084Z,98035.13
2023-04-18T08:38:51.905Z,98033.48
2023-04-18T08:41:26.158Z,98035.30
2023-04-18T08:43:59.132Z,98035.56
2023-04-18T08:46:37.535Z,98042.74
2023-04-18T08:49:11.996Z,98038.91
2023-04-18T08:51:49.211Z,98039.13
2023-04-18T08:54:22.842Z,98036.25
2023-04-18T08:57:06.876Z,98042.08
2023-04-18T08:59:43.744Z,98042.52
2023-04-18T09:02:17.142Z,98045.90
2023-04-18T09:04:53.133Z,98049.41
2023-04-18T09:07:32.467Z,98041.33
2023-04-18T09:10:05.544Z,98044.97
2023-04-18T09:12:50.664Z,98046.68
2023-04-18T09:15:27.536Z,98047.80
2023-04-18T09:18:03.378Z,98043.73
2023-04-18T09:20:48.079Z,98046.44
2023-04-18T09:23:26.923Z,98043.33
2023-04-18T09:26:01.665Z,98044.88
2023-04-18T09:28:35.458Z,98038.39
2023-04-18T09:31:15.987Z,98038.71
2023-04-18T09:33:57.182Z,98042.45
2023-04-18T09:36:31.825Z,98040.84
2023-04-18T09:39:05.092Z,98043.45
2023-04-18T09:41:38.099Z,98041.02
2023-04-18T09:44:15.930Z,98042.42
2023-04-18T09:46:49.979Z,98046.88
2023-04-18T09:49:23.207Z,98045.30
2023-04-18T09:51:55.244Z,98047.63
2023-04-18T09:54:29.934Z,98044.64
2023-04-18T09:57:07.561Z,98046.15
2023-04-18T09:59:52.721Z,98040.77
2023-04-18T10:02:27.021Z,98040.33
2023-04-18T10:05:01.201Z,98036.65
2023-04-18T10:07:35.227Z,98033.85
2023-04-18T10:10:09.140Z,98030.75
2023-04-18T10:12:43.012Z,98034.98
2023-04-18T10:15:18.059Z,98035.17
2023-04-18T10:20:32.325Z,98039.40
2023-04-18T10:23:23.502Z,98037.84
2023-04-18T10:25:55.996Z,98036.02
2023-04-18T10:28:28.969Z,98032.38
2023-04-18T10:31:06.012Z,98033.66
2023-04-18T10:33:42.856Z,98028.02
2023-04-18T10:36:20.903Z,98030.10
2023-04-18T10:38:55.150Z,98029.60
2023-04-18T10:41:30.861Z,98029.64
2023-04-18T10:44:24.259Z,98030.41
2023-04-18T10:47:23.495Z,98025.54
2023-04-18T10:50:06.771Z,98019.88
2023-04-18T10:52:42.284Z,98021.04
2023-04-18T10:55:26.224Z,98018.27
2023-04-18T10:58:01.202Z,98011.92
2023-04-18T11:00:34.802Z,98011.45
2023-04-18T11:03:07.963Z,98014.02
2023-04-18T11:05:41.313Z,98009.77
2023-04-18T11:08:26.924Z,98010.71
2023-04-18T11:11:07.274Z,98007.20
2023-04-18T11:13:39.917Z,98003.51
2023-04-18T11:16:27.559Z,97998.94
2023-04-18T11:19:01.051Z,98002.23
2023-04-18T11:21:34.834Z,98001.29
2023-04-18T11:24:08.666Z,98002.37
2023-04-18T11:26:41.765Z,97999.67
2023-04-18T11:29:14.417Z,98001.19
2023-04-18T11:31:56.824Z,98003.38
2023-04-18T11:34:34.799Z,97993.37
2023-04-18T11:37:09.802Z,97995.38
2023-04-18T11:39:46.475Z,97994.88
2023-04-18T11:42:19.198Z,97993.02
2023-04-18T11:44:51.728Z,97998.09
2023-04-18T11:47:33.409Z,97989.79
2023-04-18T11:50:08.236Z,97988.55
2023-04-18T11:52:41.655Z,97985.79
2023-04-18T11:55:22.188Z,97988.90
2023-04-18T11:57:56.129Z,97987.33
2023-04-18T12:00:37.973Z,97983.06
2023-04-18T12:03:17.422Z,97984.55
2023-04-18T12:05:51.098Z,97978.54
2023-04-18T12:08:24.773Z,97980.58
2023-04-18T12:10:57.872Z,97972.44
2023-04-18T12:13:33.264Z,97976.43
2023-04-18T12:16:08.152Z,97972.39
2023-04-18T12:18:43.541Z,97967.87
2023-04-18T12:21:19.043Z,97964.50
2023-04-18T12:23:52.284Z,97965.58
2023-04-18T12:26:23.961Z,97962.86
2023-04-18T12:28:56.821Z,97965.70
2023-04-18T12:31:29.535Z,97967.03
2023-04-18T12:34:07.320Z,97965.08
2023-04-18T12:36:39.752Z,97961.60
2023-04-18T12:39:12.399Z,97967.14
2023-04-18T12:41:48.909Z,97963.17
2023-04-18T12:44:25.042Z,97963.39
2023-04-18T12:46:57.722Z,97961.97
2023-04-18T12:49:30.439Z,97961.91
2023-04-18T12:52:02.943Z,97959.85
2023-04-18T12:54:37.820Z,97958.73
2023-04-18T12:57:10.617Z,97959.02
2023-04-18T12:59:43.994Z,97953.59
2023-04-18T13:02:16.936Z,97952.20
2023-04-18T13:04:50.050Z,97949.63
2023-04-18T13:07:22.879Z,97950.95
2023-04-18T13:09:55.450Z,97946.63
2023-04-18T13:12:29.736Z,97951.91
2023-04-18T13:15:02.761Z,97950.99
2023-04-18T13:17:36.943Z,97949.20
2023-04-18T13:20:12.735Z,97947.09
2023-04-18T13:22:46.625Z,97949.39
2023-04-18T13:25:19.445Z,97950.38
2023-04-18T13:27:52.371Z,97951.90
2023-04-18T13:30:24.927Z,97949.60
2023-04-18T13:33:02.588Z,97950.45
2023-04-18T13:35:39.797Z,97954.44
2023-04-18T13:38:12.732Z,97953.24
2023-04-18T13:40:45.406Z,97955.69
2023-04-18T13:43:18.690Z,97956.23
2023-04-18T13:45:51.792Z,97956.70
2023-04-18T13:48:22.641Z,97953.73
2023-04-18T13:50:55.860Z,97956.19
2023-04-18T13:53:30.630Z,97961.06
2023-04-18T13:56:04.574Z,97960.73
2023-04-18T13:58:37.080Z,97961.69
2023-04-18T14:01:12.799Z,97959.80
2023-04-18T14:03:47.511Z,97964.89
2023-04-18T14:06:23.207Z,97962.09
2023-04-18T14:08:56.249Z,97959.23
2023-04-18T14:11:29.364Z,97960.73
2023-04-18T14:14:02.992Z,97961.79
2023-04-18T14:16:36.349Z,97960.35
2023-04-18T14:19:07.013Z,97962.14
2023-04-18T14:21:39.855Z,97964.15
2023-04-18T14:24:15.038Z,97962.20
2023-04-18T14:26:49.944Z,97960.54
2023-04-18T14:29:22.970Z,97961.84
2023-04-18T14:31:57.092Z,97963.32
2023-04-18T14:34:31.199Z,97963.14
2023-04-18T14:37:06.710Z,97963.60
2023-04-18T14:39:38.396Z,97966.61
2023-04-18T14:42:11.283Z,97962.77
2023-04-18T14:44:44.401Z,97961.38
2023-04-18T14:47:17.241Z,97962.31
2023-04-18T14:49:50.914Z,97960.58
2023-04-18T14:52:23.554Z,97957.61
2023-04-18T14:54:56.464Z,97960.23
2023-04-18T14:57:32.070Z,97959.31
2023-04-18T15:00:05.952Z,97957.23
2023-04-18T15:02:39.312Z,97956.27
2023-04-18T15:05:14.943Z,97952.09
2023-04-18T15:07:48.244Z,97949.87
2023-04-18T15:10:23.049Z,97946.75
2023-04-18T15:12:55.957Z,97949.20
2023-04-18T15:15:28.566Z,97947.99
2023-04-18T15:18:01.301Z,97946.00
2023-04-18T15:20:34.761Z,97941.86
2023-04-18T15:23:05.712Z,97940.70
2023-04-18T15:25:38.600Z,97943.88
2023-04-18T15:28:11.302Z,97945.80
2023-04-18T15:30:45.733Z,97943.80
2023-04-18T15:33:20.927Z,97945.76
2023-04-18T15:35:54.286Z,97946.58
2023-04-18T15:38:26.864Z,97942.84
2023-04-18T15:40:59.524Z,97947.06
2023-04-18T15:43:33.126Z,97945.20
2023-04-18T15:46:07.699Z,97944.70
2023-04-18T15:48:41.116Z,97942.92
2023-04-18T15:51:13.679Z,97942.96
2023-04-18T15:53:50.558Z,97941.77
2023-04-18T15:56:23.882Z,97941.77
2023-04-18T15:58:59.362Z,97938.69
2023-04-18T16:01:34.981Z,97937.00
2023-04-18T16:04:08.181Z,97937.20
2023-04-18T16:06:41.150Z,97936.02
2023-04-18T16:09:14.851Z,97934.77
2023-04-18T16:11:48.971Z,97935.23
2023-04-18T16:14:21.880Z,97937.75
2023-04-18T16:16:54.086Z,97938.88
2023-04-18T16:19:28.706Z,97933.14
2023-04-18T16:22:01.683Z,97935.00
2023-04-18T16:24:34.703Z,97932.95
2023-04-18T16:27:07.678Z,97934.42
2023-04-18T16:29:40.380Z,97937.33
2023-04-18T16:32:13.265Z,97932.20
2023-04-18T16:34:50.242Z,97934.39
2023-04-18T16:37:25.162Z,97938.11
2023-04-18T16:39:58.325Z,97934.95
2023-04-18T16:42:31.019Z,97941.88
2023-04-18T16:45:05.444Z,97937.42
2023-04-18T16:47:38.174Z,97939.38
2023-04-18T16:50:12.615Z,97941.51
2023-04-18T16:52:46.035Z,97942.42
2023-04-18T16:55:16.858Z,97940.20
2023-04-18T16:57:49.544Z,97939.39
2023-04-18T17:00:22.811Z,97942.27
2023-04-18T17:02:56.511Z,97940.13
2023-04-18T17:05:29.212Z,97943.55
2023-04-18T17:08:04.618Z,97948.52
2023-04-18T17:10:37.535Z,97945.34
2023-04-18T17:13:11.025Z,97948.89
2023-04-18T17:15:48.158Z,97951.30
2023-04-18T17:18:21.352Z,97951.39
2023-04-18T17:20:54.405Z,97957.42
2023-04-18T17:23:27.214Z,97956.12
2023-04-18T17:26:00.051Z,97951.55
2023-04-18T17:28:35.622Z,97957.54
2023-04-18T17:31:09.135Z,97957.11
2023-04-18T17:33:41.790Z,97962.90
2023-04-18T17:36:15.222Z,97961.77
2023-04-18T17:38:49.389Z,97964.68
2023-04-18T17:41:22.919Z,97967.27
2023-04-18T17:43:55.650Z,97969.71
2023-04-18T17:46:28.425Z,97967.84
2023-04-18T17:49:02.067Z,97969.56
2023-04-18T17:51:35.019Z,97970.42
2023-04-18T17:54:11.121Z,97972.59
2023-04-18T17:56:44.750Z,97969.50
2023-04-18T17:59:17.904Z,97969.79
2023-04-18T18:01:51.342Z,97967.45
2023-04-18T18:04:26.533Z,97964.52
2023-04-18T18:07:00.982Z,97966.63
2023-04-18T18:09:34.116Z,97968.09
2023-04-18T18:12:10.133Z,97964.40
2023-04-18T18:14:43.113Z,97960.59
2023-04-18T18:17:15.841Z,97961.05
2023-04-18T18:19:50.441Z,97964.29
2023-04-18T18:22:25.172Z,97964.92
2023-04-18T18:24:58.622Z,97964.43
2023-04-18T18:27:32.434Z,97965.85
2023-04-18T18:30:06.085Z,97967.38
2023-04-18T18:32:36.921Z,97969.37
2023-04-18T18:35:13.198Z,97965.14
2023-04-18T18:37:46.331Z,97966.22
2023-04-18T18:40:19.615Z,97966.60
2023-04-18T18:42:54.939Z,97964.99
2023-04-18T18:45:28.117Z,97962.46
2023-04-18T18:48:01.985Z,97964.77
2023-04-18T18:50:38.148Z,97963.84
2023-04-18T18:53:18.273Z,97967.73
2023-04-18T18:55:51.717Z,97965.60
2023-04-18T18:58:25.170Z,97962.71
2023-04-18T19:01:03.804Z,97963.71
2023-04-18T19:03:37.259Z,97961.45
2023-04-18T19:06:10.258Z,97961.61
2023-04-18T19:08:43.470Z,97960.85
2023-04-18T19:11:16.720Z,97959.87
2023-04-18T19:13:53.122Z,97966.23
2023-04-18T19:16:26.324Z,97964.48
2023-04-18T19:18:59.262Z,97962.70
2023-04-18T19:21:31.852Z,97957.52
2023-04-18T19:24:06.167Z,97955.48
2023-04-18T19:26:38.771Z,97953.05
2023-04-18T19:29:15.442Z,97949.48
2023-04-18T19:31:49.114Z,97949.92
2023-04-18T19:34:23.856Z,97947.89
2023-04-18T19:36:57.490Z,97943.25
2023-04-18T19:39:30.569Z,97941.38
2023-04-18T19:42:05.428Z,97942.04
2023-04-18T19:44:38.362Z,97939.70
2023-04-18T19:47:13.798Z,97941.09
2023-04-18T19:49:47.320Z,97940.85
2023-04-18T19:52:19.848Z,97940.10
2023-04-18T19:54:54.233Z,97938.67
2023-04-18T19:57:29.586Z,97937.27
2023-04-18T20:00:02.215Z,97935.89
2023-04-18T20:02:45.211Z,97930.43
2023-04-18T20:05:19.064Z,97929.76
2023-04-18T20:07:51.997Z,97926.66
2023-04-18T20:10:25.564Z,97927.17
2023-04-18T20:12:58.151Z,97919.15
2023-04-18T20:15:33.035Z,97915.55
2023-04-18T20:18:07.457Z,97915.38
2023-04-18T20:20:40.074Z,97911.46
2023-04-18T20:23:13.499Z,97911.39
2023-04-18T20:25:49.898Z,97910.69
2023-04-18T20:28:22.518Z,97909.36
2023-04-18T20:30:55.518Z,97907.30
2023-04-18T20:33:29.665Z,97904.07
2023-04-18T20:36:02.587Z,97902.46
2023-04-18T20:38:35.318Z,97902.05
2023-04-18T20:41:19.212Z,97906.59
2023-04-18T20:43:54.046Z,97904.66
2023-04-18T20:46:26.693Z,97901.46
2023-04-18T20:48:59.529Z,97899.71
2023-04-18T20:51:32.493Z,97901.44
2023-04-18T20:54:03.708Z,97901.35
2023-04-18T20:56:37.707Z,97904.16
2023-04-18T20:59:10.472Z,97901.19
2023-04-18T21:01:43.589Z,97899.74
2023-04-18T21:04:16.791Z,97892.90
2023-04-18T21:06:50.382Z,97891.89
2023-04-18T21:09:23.482Z,97887.77
2023-04-18T21:11:58.404Z,97884.33
2023-04-18T21:14:31.212Z,97878.09
2023-04-18T21:17:04.278Z,97872.85
2023-04-18T21:19:36.858Z,97868.70
2023-04-18T21:22:09.709Z,97867.52
2023-04-18T21:24:42.528Z,97865.77
2023-04-18T21:27:16.357Z,97864.38
2023-04-18T21:29:49.296Z,97861.81
2023-04-18T21:32:22.667Z,97862.30
2023-04-18T21:34:56.698Z,97858.23
2023-04-18T21:37:29.314Z,97857.63
2023-04-18T21:40:01.856Z,97857.67
2023-04-18T21:42:35.566Z,97853.41
2023-04-18T21:45:10.618Z,97848.95
2023-04-18T21:47:44.250Z,97845.20
2023-04-18T21:50:17.019Z,97845.38
2023-04-18T21:52:49.639Z,97844.55
2023-04-18T21:55:22.357Z,97840.52
2023-04-18T21:57:55.870Z,97838.34
2023-04-18T22:00:26.629Z,97837.86
2023-04-18T22:02:59.578Z,97834.98
2023-04-18T22:05:33.801Z,97834.76
2023-04-18T22:08:06.779Z,97833.53
2023-04-18T22:10:40.321Z,97832.64
2023-04-18T22:13:12.089Z,97829.88
2023-04-18T22:15:44.738Z,97824.44
2023-04-18T22:18:17.570Z,97825.04
2023-04-18T22:20:50.138Z,97821.70
2023-04-18T22:23:22.733Z,97821.73
2023-04-18T22:25:55.270Z,97815.28
2023-04-18T22:28:29.137Z,97813.58
2023-04-18T22:31:01.752Z,97807.00
2023-04-18T22:33:34.549Z,97802.40
2023-04-18T22:36:10.204Z,97804.65
2023-04-18T22:38:46.354Z,97796.21
2023-04-18T22:41:19.369Z,97788.48
2023-04-18T22:43:51.749Z,97786.77
2023-04-18T22:46:24.419Z,97781.43
2023-04-18T22:48:57.325Z,97777.63
2023-04-18T22:51:30.729Z,97779.27
2023-04-18T22:54:06.508Z,97775.59
2023-04-18T22:56:39.042Z,97776.40
2023-04-18T22:59:11.581Z,97773.73
2023-04-18T23:01:44.437Z,97768.58
2023-04-18T23:04:17.361Z,97767.34
2023-04-18T23:06:50.327Z,97762.14
2023-04-18T23:09:23.103Z,97759.00
2023-04-18T23:11:56.171Z,97756.24
2023-04-18T23:14:30.447Z,97749.98
2023-04-18T23:17:03.524Z,97749.27
2023-04-18T23:19:36.203Z,97748.39
2023-04-18T23:22:08.895Z,97743.73
2023-04-18T23:24:41.798Z,97740.40
2023-04-18T23:27:14.609Z,97733.89
2023-04-18T23:29:50.492Z,97729.73
2023-04-18T23:32:23.420Z,97724.40
2023-04-18T23:34:56.159Z,97719.54
2023-04-18T23:37:28.925Z,97716.77
2023-04-18T23:40:07.069Z,97717.30
2023-04-18T23:42:39.842Z,97712.36
2023-04-18T23:45:13.477Z,97710.53
2023-04-18T23:47:46.395Z,97705.19
2023-04-18T23:50:19.102Z,97706.04
2023-04-18T23:52:51.896Z,97701.88
2023-04-18T23:55:24.971Z,97701.14
2023-04-18T23:57:57.758Z,97694.23
